Flight Track Log - Related Links

Times and Time Zones

All times are in EDT time to prevent confusion due to time zone crossing. See the CTL61 flight status page for this flight to view local times or setup timezone preferences in your user account.

Time Position Orientation Groundspeed Altitude Reporting Facility
EDT Latitude Longitude Course Direction KTS MPH feet Rate Location/Type
Thu 08:58:43 PM 39.9950 -82.8983 273° West 109 125 1,100  Level Indianapolis Center
Thu 08:59:44 PM 39.9964 -82.9394 273° West 114 131 2,300 1,043 Climbing Indianapolis Center
Thu 09:00:15 PM 39.9967 -82.9572 271° West 117 135 2,700 1,091 Climbing Indianapolis Center
Thu 09:00:50 PM 39.9933 -82.9853 261° West 110 127 3,500 984 Climbing Indianapolis Center
Thu 09:01:16 PM 39.9931 -82.9961 268° West 112 129 3,700 787 Climbing Indianapolis Center
Thu 09:01:51 PM 39.9806 -83.0192 235° Southwest 107 123 4,300 871 Climbing Indianapolis Center
Thu 09:02:18 PM 39.9739 -83.0125 143° Southeast 110 127 4,600 885 Climbing Indianapolis Center
Thu 09:02:52 PM 39.9569 -82.9975 146° Southeast 105 121 5,200 787 Climbing Indianapolis Center
Thu 09:03:19 PM 39.9489 -82.9914 150° Southeast 107 123 5,400 778 Climbing Indianapolis Center
Thu 09:03:46 PM 39.9328 -82.9811 154° Southeast 106 122 5,900 787 Climbing Indianapolis Center
Thu 09:04:20 PM 39.9244 -82.9706 136° Southeast 105 121 6,200 590 Climbing Indianapolis Center
Thu 09:04:47 PM 39.9072 -82.9592 153° Southeast 112 129 6,500 590 Climbing Indianapolis Center
Thu 09:05:21 PM 39.8964 -82.9511 150° Southeast 110 127 6,800 689 Climbing Indianapolis Center
Thu 09:05:48 PM 39.8792 -82.9397 153° Southeast 114 131 7,200 581 Climbing Indianapolis Center
Thu 09:06:23 PM 39.8678 -82.9319 152° Southeast 114 131 7,400 600 Climbing Indianapolis Center
Thu 09:06:48 PM 39.8511 -82.9228 157° South 115 132 7,800 590 Climbing Indianapolis Center
Thu 09:07:24 PM 39.8375 -82.9122 149° Southeast 119 137 8,000 295 Climbing Indianapolis Center
Thu 09:07:49 PM 39.8208 -82.9031 157° South 125 144 8,100 98 Climbing Indianapolis Center
Thu 09:08:25 PM 39.7961 -82.8869 153° Southeast 141 162 8,100  Level Indianapolis Center
Thu 09:08:50 PM 39.7789 -82.8767 155° Southeast 156 180 8,100  Level Indianapolis Center
Thu 09:09:26 PM 39.7569 -82.8608 151° Southeast 156 180 8,100  Level Indianapolis Center
Thu 09:10:02 PM 39.7347 -82.8472 155° Southeast 157 181 8,100  Level Indianapolis Center
Thu 09:10:27 PM 39.7181 -82.8375 156° South 153 176 8,100  Level Indianapolis Center
Thu 09:11:03 PM 39.6967 -82.8214 150° Southeast 156 180 8,100 -97 Level Indianapolis Center
Thu 09:11:29 PM 39.6792 -82.8086 151° Southeast 157 181 8,000 -393 Descending Indianapolis Center
Thu 09:12:04 PM 39.6525 -82.7919 154° Southeast 163 188 7,700 -492 Descending Indianapolis Center
Thu 09:12:30 PM 39.6381 -82.7811 150° Southeast 164 189 7,500 -444 Descending Indianapolis Center
Thu 09:12:58 PM 39.6186 -82.7692 155° Southeast 171 197 7,300 -393 Descending Indianapolis Center
Thu 09:13:31 PM 39.5958 -82.7544 154° Southeast 166 191 7,100 -128 Descending Indianapolis Center
Thu 09:14:32 PM 39.5567 -82.7297 154° Southeast 160 184 7,100 -49 Level Indianapolis Center
Thu 09:15:34 PM 39.5203 -82.7064 154° Southeast 149 171 7,000  Descending Indianapolis Center
Thu 09:16:35 PM 39.4844 -82.6844 155° Southeast 143 165 7,100 49 Climbing Indianapolis Center
Thu 09:17:36 PM 39.4486 -82.6594 152° Southeast 144 166 7,100  Level Indianapolis Center
Thu 09:18:37 PM 39.4128 -82.6350 152° Southeast 144 166 7,100  Level Indianapolis Center
Thu 09:19:39 PM 39.3761 -82.6111 153° Southeast 146 168 7,100 -49 Level Indianapolis Center
Thu 09:20:40 PM 39.3411 -82.5847 150° Southeast 144 166 7,000  Descending Indianapolis Center
Thu 09:21:41 PM 39.3053 -82.5569 149° Southeast 147 169 7,100  Climbing Indianapolis Center
Thu 09:22:42 PM 39.2700 -82.5292 149° Southeast 147 169 7,000  Descending Indianapolis Center
Thu 09:23:43 PM 39.2317 -82.5039 153° Southeast 151 174 7,100  Climbing Indianapolis Center
Thu 09:24:44 PM 39.1894 -82.4736 151° Southeast 151 174 7,000 49 Descending Indianapolis Center
Thu 09:25:46 PM 39.1533 -82.4478 151° Southeast 150 173 7,200  Climbing Indianapolis Center
Thu 09:26:47 PM 39.1156 -82.4244 154° Southeast 151 174 7,000 -98 Descending Indianapolis Center
Thu 09:27:48 PM 39.0769 -82.4006 154° Southeast 153 176 7,000  Level Indianapolis Center
Thu 09:28:49 PM 39.0394 -82.3772 154° Southeast 151 174 7,000 49 Level Indianapolis Center
Thu 09:29:50 PM 39.0025 -82.3531 153° Southeast 149 171 7,100  Climbing Indianapolis Center
Thu 09:30:51 PM 38.9647 -82.3281 153° Southeast 151 174 7,000  Descending Indianapolis Center
Thu 09:31:53 PM 38.9269 -82.3011 151° Southeast 155 178 7,100  Climbing Indianapolis Center
Thu 09:32:54 PM 38.8897 -82.2747 151° Southeast 153 176 7,000  Descending Indianapolis Center
Thu 09:33:55 PM 38.8522 -82.2500 153° Southeast 151 174 7,100 49 Climbing Indianapolis Center
Thu 09:34:56 PM 38.8147 -82.2236 151° Southeast 154 177 7,100 -49 Level Indianapolis Center
Thu 09:35:57 PM 38.7681 -82.1936 153° Southeast 157 181 7,000 -49 Descending Indianapolis Center
Thu 09:36:58 PM 38.7294 -82.1672 152° Southeast 159 183 7,000  Level Indianapolis Center
Thu 09:38:00 PM 38.6914 -82.1414 152° Southeast 156 180 7,000  Level Indianapolis Center
Thu 09:39:01 PM 38.6533 -82.1150 152° Southeast 155 178 7,000  Level Indianapolis Center
Thu 09:40:02 PM 38.6144 -82.0878 151° Southeast 158 182 7,000  Level Indianapolis Center
Thu 09:41:03 PM 38.5758 -82.0628 153° Southeast 157 181 7,000  Level Indianapolis Center
Thu 09:42:04 PM 38.5381 -82.0372 152° Southeast 154 177 7,000  Level Indianapolis Center
Thu 09:43:05 PM 38.4989 -82.0139 155° Southeast 155 178 7,000  Level Indianapolis Center
Thu 09:44:06 PM 38.4617 -81.9869 150° Southeast 155 178 7,000  Level Indianapolis Center
Thu 09:45:08 PM 38.4228 -81.9614 153° Southeast 157 181 7,000  Level Indianapolis Center
Thu 09:46:09 PM 38.3842 -81.9347 152° Southeast 158 182 7,000  Level Indianapolis Center
Thu 09:47:10 PM 38.3400 -81.9036 151° Southeast 152 175 7,000  Level Indianapolis Center
Thu 09:48:11 PM 38.3017 -81.8775 152° Southeast 154 177 7,000  Level Indianapolis Center
Thu 09:49:12 PM 38.2639 -81.8517 152° Southeast 156 180 7,000  Level Indianapolis Center
Thu 09:50:13 PM 38.2253 -81.8314 158° South 152 175 7,000  Level Indianapolis Center
Thu 09:51:15 PM 38.1881 -81.8069 153° Southeast 150 173 7,000  Level Indianapolis Center
Thu 09:52:16 PM 38.1503 -81.7825 153° Southeast 151 174 7,000  Level Indianapolis Center
Thu 09:53:17 PM 38.1136 -81.7597 154° Southeast 149 171 7,000  Level Indianapolis Center
Thu 09:54:18 PM 38.0783 -81.7364 152° Southeast 146 168 7,000  Level Indianapolis Center
Thu 09:55:19 PM 38.0436 -81.7142 153° Southeast 142 163 7,000 -49 Level Indianapolis Center
Thu 09:56:20 PM 38.0081 -81.6894 151° Southeast 145 167 6,900 -49 Descending Indianapolis Center
Thu 09:57:22 PM 37.9661 -81.6608 152° Southeast 142 163 6,900  Level Indianapolis Center
Thu 09:58:23 PM 37.9303 -81.6372 153° Southeast 144 166 6,900 -49 Level Indianapolis Center
Thu 09:59:24 PM 37.8953 -81.6161 155° Southeast 141 162 6,800 -49 Descending Indianapolis Center
Thu 10:00:25 PM 37.8608 -81.5928 152° Southeast 140 161 6,800 148 Level Indianapolis Center
Thu 10:01:26 PM 37.8242 -81.5683 152° Southeast 139 160 7,100 98 Climbing Indianapolis Center
Thu 10:02:27 PM 37.7900 -81.5428 149° Southeast 141 162 7,000  Descending Indianapolis Center
Thu 10:03:29 PM 37.7564 -81.5206 152° Southeast 139 160 7,100  Climbing Indianapolis Center
Thu 10:04:30 PM 37.7214 -81.4983 153° Southeast 140 161 7,000 -49 Descending Indianapolis Center
Thu 10:05:31 PM 37.6892 -81.4744 150° Southeast 144 166 7,000 -148 Level Indianapolis Center
Thu 10:06:32 PM 37.6469 -81.4453 151° Southeast 149 171 6,700 -344 Descending Indianapolis Center
Thu 10:07:33 PM 37.6097 -81.4211 153° Southeast 155 178 6,300 -344 Descending Indianapolis Center
Thu 10:08:34 PM 37.5739 -81.3978 153° Southeast 150 173 6,000 -148 Descending Indianapolis Center
Thu 10:09:35 PM 37.5411 -81.3753 151° Southeast 141 162 6,000  Level Indianapolis Center

Login

Don't have an account? Register now (free) for customized features, flight alerts, and more!